Time;durP1;ratioP1;P1;durP2;ratioP2;P2;SDS_P1;SDS_P2;PMS_P1;PMS_P2;Temp;Humidity;BMP_temperature;BMP_pressure;BME280_temperature;BME280_humidity;BME280_pressure;Samples;Min_cycle;Max_cycle;Signal;HPM_P1;HPM_P2
2022/03/05 00:01:18;;;;;;;30.55;17.40;;;;;;;8.40;29.84;94874.63;4952980;29;20640;-69
2022/03/05 00:03:45;;;;;;;30.90;17.02;;;;;;;8.24;29.98;94857.19;4952868;29;20200;-68
2022/03/05 00:06:13;;;;;;;30.83;16.80;;;;;;;8.44;29.69;94875.72;4952606;29;20200;-67
2022/03/05 00:08:41;;;;;;;29.83;17.65;;;;;;;8.52;29.59;94879.75;4952106;29;20203;-69
2022/03/05 00:11:11;;;;;;;34.60;17.50;;;;;;;8.27;29.97;94863.72;4952511;29;20195;-68
2022/03/05 00:13:38;;;;;;;29.33;17.58;;;;;;;8.29;30.23;94878.13;4952390;29;20199;-68
2022/03/05 00:16:05;;;;;;;31.48;17.52;;;;;;;8.10;31.18;94876.81;4951044;29;20242;-68
2022/03/05 00:18:32;;;;;;;32.95;18.83;;;;;;;7.73;31.50;94880.94;4935550;29;20231;-69
2022/03/05 00:20:58;;;;;;;40.28;19.85;;;;;;;7.75;31.57;94879.69;4953118;29;20697;-69
2022/03/05 00:23:25;;;;;;;30.13;17.52;;;;;;;7.95;31.77;94879.19;4954980;29;20203;-68
2022/03/05 00:25:52;;;;;;;35.70;19.00;;;;;;;7.97;31.53;94877.91;4954571;29;20591;-70
2022/03/05 00:28:19;;;;;;;35.17;19.42;;;;;;;7.91;32.00;94875.47;4955267;29;20199;-71
2022/03/05 00:30:46;;;;;;;30.50;18.55;;;;;;;8.18;30.89;94879.00;4954998;29;20184;-68
2022/03/05 00:33:14;;;;;;;32.65;18.52;;;;;;;8.18;31.12;94873.78;4954380;29;20306;-72
2022/03/05 00:35:41;;;;;;;31.23;18.75;;;;;;;8.28;31.21;94879.19;4953073;29;20203;-69
2022/03/05 00:38:08;;;;;;;36.30;18.85;;;;;;;8.13;31.71;94873.72;4953959;29;20300;-69
2022/03/05 00:40:35;;;;;;;28.90;18.05;;;;;;;8.03;31.90;94881.38;4952298;29;20195;-69
2022/03/05 00:43:02;;;;;;;30.73;18.70;;;;;;;8.03;32.15;94873.56;4952123;29;20212;-71
2022/03/05 00:45:28;;;;;;;31.38;19.40;;;;;;;7.64;32.07;94840.66;4951201;29;20204;-70
2022/03/05 00:47:56;;;;;;;34.05;19.33;;;;;;;8.02;32.14;94877.22;4951758;29;20234;-70
2022/03/05 00:50:23;;;;;;;34.05;19.33;;;;;;;7.79;31.91;94861.75;4951224;29;20714;-71
2022/03/05 00:52:50;;;;;;;33.35;18.83;;;;;;;7.98;32.33;94876.09;4951640;29;20290;-68
2022/03/05 00:55:16;;;;;;;32.25;19.63;;;;;;;7.86;32.66;94872.81;4951401;29;20211;-66
2022/03/05 00:57:43;;;;;;;35.00;18.83;;;;;;;7.72;32.79;94874.16;4934355;29;20758;-65
2022/03/05 01:00:11;;;;;;;41.50;20.23;;;;;;;7.75;32.89;94873.69;4951345;29;20184;-68
2022/03/05 01:02:39;;;;;;;36.55;20.77;;;;;;;7.75;33.49;94871.88;4951917;28;20200;-67
2022/03/05 01:05:09;;;;;;;51.33;26.45;;;;;;;7.65;33.65;94870.91;4951171;29;20390;-65
2022/03/05 01:07:37;;;;;;;61.75;28.85;;;;;;;7.89;33.10;94872.31;4953183;29;20573;-67
2022/03/05 01:10:05;;;;;;;61.40;31.38;;;;;;;7.73;33.02;94871.31;4957433;29;20342;-69
2022/03/05 01:12:33;;;;;;;66.43;34.03;;;;;;;7.46;33.56;94861.75;4958754;29;20204;-69
2022/03/05 01:15:00;;;;;;;64.65;34.47;;;;;;;7.65;33.22;94865.69;4956495;29;20239;-67
2022/03/05 01:17:27;;;;;;;69.97;33.88;;;;;;;7.43;33.38;94867.41;4951885;29;20792;-67
2022/03/05 01:19:54;;;;;;;60.75;34.10;;;;;;;7.14;34.01;94857.06;4951169;29;20196;-68
2022/03/05 01:22:21;;;;;;;64.13;33.47;;;;;;;7.30;33.59;94859.91;4951317;29;20199;-67
2022/03/05 01:24:48;;;;;;;61.13;34.05;;;;;;;7.44;33.73;94862.00;4950874;29;20262;-67
2022/03/05 01:27:16;;;;;;;61.58;32.88;;;;;;;7.42;33.61;94871.84;4950933;29;20790;-66
2022/03/05 01:29:43;;;;;;;61.53;32.63;;;;;;;7.27;34.07;94865.59;4950879;29;20208;-65
2022/03/05 01:32:10;;;;;;;60.15;31.70;;;;;;;7.19;34.09;94862.34;4951502;29;20203;-67
2022/03/05 01:34:36;;;;;;;60.17;31.70;;;;;;;7.19;33.91;94858.94;4950838;29;20204;-68
2022/03/05 01:37:04;;;;;;;58.28;32.83;;;;;;;7.15;34.33;94871.66;4951517;29;20656;-68
2022/03/05 01:39:31;;;;;;;58.22;31.77;;;;;;;7.19;34.01;94862.34;4950609;29;20292;-65
2022/03/05 01:41:58;;;;;;;59.53;32.85;;;;;;;7.31;34.16;94871.91;4951420;29;20204;-69
2022/03/05 01:44:25;;;;;;;58.42;32.30;;;;;;;7.31;34.32;94871.91;4950520;29;20631;-68
2022/03/05 01:46:52;;;;;;;62.28;33.72;;;;;;;7.41;33.46;94864.28;4950842;29;20303;-69
2022/03/05 01:49:19;;;;;;;58.58;33.22;;;;;;;7.29;34.69;94858.31;4950250;29;20206;-69
2022/03/05 01:51:47;;;;;;;60.85;32.58;;;;;;;7.32;33.64;94863.09;4950833;29;20271;-65
2022/03/05 01:54:14;;;;;;;60.05;33.08;;;;;;;7.26;34.61;94864.81;4950709;29;20274;-71
2022/03/05 01:56:42;;;;;;;62.97;32.95;;;;;;;7.22;34.59;94854.03;4951100;29;20204;-67
2022/03/05 01:59:09;;;;;;;55.08;32.15;;;;;;;7.46;33.88;94864.34;4950518;29;20673;-69
2022/03/05 02:01:36;;;;;;;57.10;32.25;;;;;;;7.28;34.08;94857.53;4951158;29;20575;-68
2022/03/05 02:04:03;;;;;;;56.85;32.60;;;;;;;7.35;33.80;94862.59;4950126;29;20235;-66
2022/03/05 02:06:31;;;;;;;55.78;31.15;;;;;;;7.38;34.45;94862.91;4951103;29;20214;-66
2022/03/05 02:08:58;;;;;;;50.67;29.88;;;;;;;7.34;34.80;94866.22;4950174;28;20200;-67
2022/03/05 02:11:26;;;;;;;57.25;31.63;;;;;;;7.53;33.92;94864.97;4933988;29;20208;-68
2022/03/05 02:13:54;;;;;;;62.17;30.65;;;;;;;7.41;34.32;94866.88;4950480;29;20208;-68
2022/03/05 02:16:22;;;;;;;54.63;31.33;;;;;;;7.47;34.92;94855.50;4952759;28;20231;-67
2022/03/05 02:18:51;;;;;;;56.78;30.52;;;;;;;7.42;34.93;94863.25;4953612;29;20318;-68
2022/03/05 02:21:20;;;;;;;57.95;31.83;;;;;;;7.57;35.02;94866.09;4955308;29;20206;-67
2022/03/05 02:23:47;;;;;;;60.30;31.08;;;;;;;7.62;34.70;94863.56;4954056;29;20309;-68
2022/03/05 02:26:14;;;;;;;58.55;32.17;;;;;;;7.48;34.37;94857.84;4954104;29;20497;-67
2022/03/05 02:28:41;;;;;;;55.20;30.50;;;;;;;7.43;35.01;94859.59;4953404;29;20207;-68
2022/03/05 02:31:08;;;;;;;55.05;30.23;;;;;;;7.57;34.56;94866.09;4953973;29;20204;-68
2022/03/05 02:33:35;;;;;;;58.05;31.52;;;;;;;7.75;34.18;94855.41;4954281;29;20207;-68
2022/03/05 02:36:03;;;;;;;53.97;30.92;;;;;;;7.72;34.61;94858.50;4954031;29;20195;-67
2022/03/05 02:38:31;;;;;;;56.35;31.60;;;;;;;7.62;34.53;94859.16;4953801;29;20231;-69
2022/03/05 02:40:57;;;;;;;55.15;31.15;;;;;;;7.71;34.74;94862.13;4953507;29;20204;-68
2022/03/05 02:43:26;;;;;;;56.95;31.35;;;;;;;7.57;34.94;94874.69;4954070;29;20255;-68
2022/03/05 02:45:53;;;;;;;59.47;31.73;;;;;;;7.51;34.56;94856.59;4953267;29;20203;-68
2022/03/05 02:48:21;;;;;;;59.55;31.13;;;;;;;7.47;34.81;94871.13;4954164;29;20670;-66
2022/03/05 02:50:50;;;;;;;51.53;29.90;;;;;;;7.33;34.88;94859.44;4953947;29;20298;-68
2022/03/05 02:53:17;;;;;;;54.15;30.25;;;;;;;7.47;34.74;94860.72;4954071;29;20204;-67
2022/03/05 02:55:45;;;;;;;52.15;30.08;;;;;;;7.31;34.83;94843.25;4952831;29;20207;-67
2022/03/05 02:58:11;;;;;;;50.67;29.98;;;;;;;7.62;34.65;94868.78;4953731;29;20578;-69
2022/03/05 03:00:39;;;;;;;51.50;30.05;;;;;;;7.53;34.64;94862.38;4953108;29;20210;-68
2022/03/05 03:03:06;;;;;;;52.83;30.35;;;;;;;7.53;34.62;94859.78;4953662;29;20236;-68
2022/03/05 03:05:34;;;;;;;57.88;32.63;;;;;;;7.60;34.52;94860.41;4953025;29;20243;-68
2022/03/05 03:08:01;;;;;;;59.47;30.90;;;;;;;7.39;35.48;94868.94;4953494;29;20196;-68
2022/03/05 03:10:28;;;;;;;54.35;32.38;;;;;;;7.29;35.38;94869.56;4952529;29;20214;-69
2022/03/05 03:12:57;;;;;;;53.20;30.83;;;;;;;7.17;35.14;94861.78;4954138;29;20192;-67
2022/03/05 03:15:24;;;;;;;51.50;30.45;;;;;;;7.21;35.92;94866.53;4952910;28;20664;-68
2022/03/05 03:17:52;;;;;;;52.55;30.95;;;;;;;7.32;35.33;94870.91;4953422;29;20247;-67
2022/03/05 03:20:24;;;;;;;54.33;31.35;;;;;;;7.46;35.02;94872.97;4952693;29;20442;-69
2022/03/05 03:22:52;;;;;;;54.13;32.00;;;;;;;7.47;34.92;94873.75;4953568;29;20211;-66
2022/03/05 03:25:20;;;;;;;58.67;31.58;;;;;;;7.39;34.80;94874.16;4952607;29;20290;-68
2022/03/05 03:27:47;;;;;;;57.65;31.52;;;;;;;7.15;34.92;94863.81;4951878;28;20191;-67
2022/03/05 03:30:16;;;;;;;52.08;30.38;;;;;;;7.38;34.94;94873.34;4952548;29;20207;-69
2022/03/05 03:32:45;;;;;;;53.38;31.55;;;;;;;7.19;35.32;94864.16;4953025;29;20219;-68
2022/03/05 03:35:14;;;;;;;57.30;32.58;;;;;;;7.47;35.38;94868.53;4952899;29;20298;-65
2022/03/05 03:37:42;;;;;;;59.20;31.48;;;;;;;7.72;35.16;94871.56;4952764;29;20195;-65
2022/03/05 03:40:11;;;;;;;57.30;32.05;;;;;;;7.22;36.37;94864.47;4952644;29;20242;-67
2022/03/05 03:42:39;;;;;;;59.53;31.02;;;;;;;7.49;35.45;94876.91;4953011;29;20243;-66
2022/03/05 03:45:06;;;;;;;57.67;31.15;;;;;;;7.32;35.60;94878.72;4952034;29;20187;-67
2022/03/05 03:47:34;;;;;;;58.85;32.28;;;;;;;7.37;35.88;94876.19;4953036;29;20216;-65
2022/03/05 03:50:01;;;;;;;59.28;32.92;;;;;;;7.19;36.02;94879.78;4952613;29;20206;-69
2022/03/05 03:52:28;;;;;;;56.13;32.75;;;;;;;7.19;35.83;94875.38;4955609;29;20218;-68
2022/03/05 03:54:55;;;;;;;60.78;34.08;;;;;;;7.32;35.73;94871.69;4952582;29;20219;-68
2022/03/05 03:57:22;;;;;;;66.57;35.53;;;;;;;7.51;34.85;94877.47;4952336;29;20676;-66
2022/03/05 03:59:51;;;;;;;65.35;35.20;;;;;;;7.32;34.91;94865.69;4951880;29;20230;-66
2022/03/05 04:02:20;;;;;;;70.82;35.90;;;;;;;7.19;35.61;94874.56;4952525;29;20212;-67
2022/03/05 04:04:48;;;;;;;67.88;34.15;;;;;;;7.19;35.63;94880.59;4956522;29;20206;-67
2022/03/05 04:10:06;;;;;;;62.85;35.47;;;;;;;7.10;36.08;94887.19;4951988;29;20200;-68
2022/03/05 04:12:33;;;;;;;63.65;33.88;;;;;;;7.02;36.52;94879.78;4951763;29;20203;-68
2022/03/05 04:14:59;;;;;;;65.40;34.88;;;;;;;6.98;36.62;94883.06;4952018;29;20227;-67
2022/03/05 04:17:26;;;;;;;67.15;35.45;;;;;;;7.14;35.96;94883.09;4952623;29;20569;-67
2022/03/05 04:19:53;;;;;;;66.60;35.33;;;;;;;7.30;35.74;94880.78;4951879;29;20650;-70
2022/03/05 04:22:20;;;;;;;72.47;38.40;;;;;;;7.21;36.20;94882.19;4952313;29;20199;-68
2022/03/05 04:24:47;;;;;;;71.95;38.95;;;;;;;7.09;35.85;94885.63;4952099;29;20196;-68
2022/03/05 04:27:14;;;;;;;71.55;37.92;;;;;;;7.05;36.36;94889.72;4951980;29;20184;-66
2022/03/05 04:29:41;;;;;;;76.10;40.75;;;;;;;7.07;35.98;94900.69;4951630;29;20293;-66
2022/03/05 04:32:08;;;;;;;79.72;41.80;;;;;;;7.25;35.41;94901.50;4951885;29;20501;-67
2022/03/05 04:34:35;;;;;;;75.57;39.28;;;;;;;6.97;36.56;94892.69;4951440;29;20200;-69
2022/03/05 04:37:03;;;;;;;78.03;41.63;;;;;;;6.82;36.48;94905.44;4952173;29;20255;-66
2022/03/05 04:39:31;;;;;;;81.85;42.78;;;;;;;6.95;35.85;94897.34;4950683;28;20227;-66
2022/03/05 04:41:58;;;;;;;92.90;48.10;;;;;;;6.92;36.60;94905.63;4951800;29;20287;-66
2022/03/05 04:44:25;;;;;;;88.03;47.45;;;;;;;6.74;36.59;94903.19;4951372;29;20212;-66
2022/03/05 04:46:52;;;;;;;92.45;47.15;;;;;;;6.80;36.08;94886.66;4951791;29;20671;-68
2022/03/05 04:49:22;;;;;;;91.45;47.10;;;;;;;6.82;36.16;94896.84;4951052;29;20203;-70
2022/03/05 04:51:50;;;;;;;88.13;46.15;;;;;;;6.80;36.37;94891.88;4951659;29;20295;-67
2022/03/05 04:54:17;;;;;;;77.05;42.83;;;;;;;6.81;36.17;94903.84;4953648;28;20195;-66
2022/03/05 04:56:44;;;;;;;78.50;40.60;;;;;;;6.62;36.36;94899.84;4971341;28;20191;-68
2022/03/05 04:59:11;;;;;;;76.07;40.60;;;;;;;6.67;36.28;94906.94;4972558;28;20226;-66
2022/03/05 05:01:38;;;;;;;71.13;38.78;;;;;;;6.66;36.32;94906.16;4965149;28;20199;-69
2022/03/05 05:04:05;;;;;;;72.38;38.83;;;;;;;6.60;36.37;94895.88;4970626;28;20195;-69
2022/03/05 05:06:32;;;;;;;70.63;38.25;;;;;;;6.74;36.33;94905.81;4970770;28;20199;-68
2022/03/05 05:09:00;;;;;;;71.57;37.30;;;;;;;6.71;36.21;94908.88;4969974;28;21084;-69
2022/03/05 05:11:27;;;;;;;66.18;36.50;;;;;;;6.79;36.54;94905.88;4970407;28;20318;-66
2022/03/05 05:13:54;;;;;;;68.68;37.03;;;;;;;6.82;36.50;94913.25;4970314;28;20187;-67
2022/03/05 05:16:21;;;;;;;63.67;36.15;;;;;;;6.88;36.40;94914.91;4970185;28;20245;-67
2022/03/05 05:21:35;;;;;;;61.72;35.72;;;;;;;7.09;36.40;94919.50;4970766;28;20640;-68
2022/03/05 05:24:02;;;;;;;74.32;37.63;;;;;;;6.84;36.49;94892.97;4969651;28;20206;-67
2022/03/05 05:26:29;;;;;;;65.70;36.85;;;;;;;6.89;36.86;94921.72;4970139;28;20219;-66
2022/03/05 05:28:56;;;;;;;64.55;37.33;;;;;;;6.85;36.54;94920.59;4968445;28;20702;-69
2022/03/05 05:31:23;;;;;;;66.47;38.55;;;;;;;6.99;37.07;94941.94;4969507;28;20195;-71
2022/03/05 05:33:50;;;;;;;65.70;38.03;;;;;;;6.89;37.36;94952.97;4970199;28;20968;-67
2022/03/05 05:36:17;;;;;;;72.07;38.08;;;;;;;6.90;37.22;94938.13;4969902;28;20203;-67
2022/03/05 05:38:44;;;;;;;70.63;38.20;;;;;;;7.07;36.94;94950.19;4969612;28;20289;-67
2022/03/05 05:41:12;;;;;;;67.13;38.85;;;;;;;7.18;37.05;94954.59;4970044;28;20175;-66
2022/03/05 05:43:39;;;;;;;66.40;38.40;;;;;;;7.14;36.75;94952.66;4969893;28;20206;-68
2022/03/05 05:46:06;;;;;;;67.28;38.17;;;;;;;6.82;37.10;94967.16;4971485;28;20290;-66
2022/03/05 05:48:52;;;;;;;66.65;37.90;;;;;;;7.35;36.36;94961.66;4969621;28;20214;-71
2022/03/05 05:51:19;;;;;;;67.70;36.95;;;;;;;7.27;36.88;94962.00;4971861;28;20254;-67
2022/03/05 05:53:45;;;;;;;70.78;38.92;;;;;;;7.16;37.18;94958.44;4973899;28;20210;-66
2022/03/05 05:56:12;;;;;;;62.10;37.30;;;;;;;7.04;37.33;94953.25;4974011;28;20250;-66
2022/03/05 05:58:40;;;;;;;67.18;36.65;;;;;;;7.07;37.45;94958.03;4973215;28;20702;-68
2022/03/05 06:01:07;;;;;;;64.60;36.55;;;;;;;7.24;37.45;94967.69;4973666;28;20211;-67
2022/03/05 06:03:34;;;;;;;65.57;38.25;;;;;;;7.15;37.61;94968.06;4973559;28;20191;-66
2022/03/05 06:06:05;;;;;;;65.40;38.03;;;;;;;7.32;36.79;94962.91;4974075;28;20225;-67
2022/03/05 06:08:32;;;;;;;64.85;36.38;;;;;;;7.25;36.86;94979.69;4973650;28;20206;-71
2022/03/05 06:10:59;;;;;;;64.20;37.15;;;;;;;7.05;37.59;94967.88;4973359;28;20195;-68
2022/03/05 06:13:26;;;;;;;59.58;36.08;;;;;;;7.12;37.56;94986.78;4973773;28;20250;-70
2022/03/05 06:15:53;;;;;;;69.55;40.08;;;;;;;6.97;37.62;94981.25;4972828;28;20531;-68
2022/03/05 06:18:19;;;;;;;74.88;43.22;;;;;;;7.10;37.78;94988.81;4978469;28;20753;-67
2022/03/05 06:20:49;;;;;;;74.18;41.33;;;;;;;7.22;37.57;94973.16;4992665;28;20630;-67
2022/03/05 06:23:19;;;;;;;81.10;45.28;;;;;;;7.43;37.48;94989.94;4992967;28;20277;-68
2022/03/05 06:25:46;;;;;;;73.28;40.22;;;;;;;7.35;37.48;94987.72;4992719;28;20198;-67
2022/03/05 06:28:14;;;;;;;82.82;41.13;;;;;;;7.41;37.40;94992.00;4993106;28;20203;-67
2022/03/05 06:30:41;;;;;;;69.53;39.60;;;;;;;7.58;36.54;94987.59;4992275;28;20195;-68
2022/03/05 06:33:08;;;;;;;74.28;41.47;;;;;;;7.86;36.88;94990.19;4959356;28;20195;-69
2022/03/05 06:35:35;;;;;;;65.72;38.58;;;;;;;8.07;35.91;94986.88;4991865;28;20202;-69
2022/03/05 06:38:04;;;;;;;69.22;39.05;;;;;;;7.89;37.53;95002.75;4992423;28;20199;-67
2022/03/05 06:40:31;;;;;;;70.93;38.70;;;;;;;7.96;36.48;94990.34;4991790;28;20274;-67
2022/03/05 06:42:58;;;;;;;70.93;39.97;;;;;;;7.96;36.83;94995.56;4992539;28;20583;-68
2022/03/05 06:45:25;;;;;;;69.72;38.92;;;;;;;8.11;36.56;94988.78;4974675;28;20293;-67
2022/03/05 06:47:52;;;;;;;66.18;38.08;;;;;;;7.85;37.41;94976.34;4992341;28;20781;-69
2022/03/05 06:50:19;;;;;;;63.88;36.33;;;;;;;7.76;36.88;94995.22;4992048;28;20206;-67
2022/03/05 06:52:46;;;;;;;59.25;33.28;;;;;;;7.27;36.94;94995.91;4992458;28;20205;-69
2022/03/05 06:55:15;;;;;;;56.47;31.52;;;;;;;7.11;36.85;94998.22;4992094;28;20203;-66
2022/03/05 06:57:42;;;;;;;55.53;30.80;;;;;;;7.32;36.37;94999.38;4991564;28;20205;-69
2022/03/05 07:00:11;;;;;;;54.92;32.75;;;;;;;7.60;36.10;95002.00;4993769;28;20241;-67
2022/03/05 07:02:38;;;;;;;58.53;32.63;;;;;;;8.05;36.38;94983.69;4996250;28;20576;-67
2022/03/05 07:05:06;;;;;;;53.97;32.05;;;;;;;8.46;34.66;95001.59;4997410;28;20199;-68
2022/03/05 07:07:33;;;;;;;102.85;57.80;;;;;;;8.52;34.92;94995.41;4998116;28;20190;-69
2022/03/05 07:09:59;;;;;;;62.70;37.97;;;;;;;8.42;34.69;94987.44;4997680;28;20294;-68
2022/03/05 07:12:26;;;;;;;64.43;35.38;;;;;;;8.70;35.03;94992.56;4999266;28;20194;-68
2022/03/05 07:14:58;;;;;;;63.50;36.47;;;;;;;8.75;34.95;94984.78;4999549;28;20264;-67
2022/03/05 07:17:26;;;;;;;82.97;45.20;;;;;;;8.74;35.53;94977.97;4999209;28;20194;-70
2022/03/05 07:19:55;;;;;;;88.25;50.78;;;;;;;8.88;35.18;94981.81;4997917;28;20225;-70
2022/03/05 07:22:22;;;;;;;92.03;52.50;;;;;;;9.02;35.42;94985.66;4995797;28;20261;-69
2022/03/05 07:24:50;;;;;;;108.05;60.20;;;;;;;8.83;35.77;94981.72;4992080;28;20193;-67
2022/03/05 07:27:17;;;;;;;107.25;58.97;;;;;;;9.08;35.48;94979.44;4992218;28;20194;-69
2022/03/05 07:29:46;;;;;;;116.50;61.60;;;;;;;9.28;35.22;94965.00;4991174;28;20248;-70
2022/03/05 07:32:32;;;;;;;106.78;59.03;;;;;;;9.11;36.01;94981.56;4974354;28;20640;-69
2022/03/05 07:34:59;;;;;;;99.65;57.28;;;;;;;9.31;35.46;94972.38;4990815;28;20198;-67
2022/03/05 07:37:26;;;;;;;102.18;55.63;;;;;;;9.39;35.32;94969.31;4992697;28;20187;-66
2022/03/05 07:39:52;;;;;;;99.15;53.60;;;;;;;9.36;35.20;94967.97;4990915;28;20230;-71
2022/03/05 07:42:19;;;;;;;99.57;53.28;;;;;;;9.34;35.54;94979.72;4991891;28;20199;-70
2022/03/05 07:44:46;;;;;;;84.13;49.85;;;;;;;9.65;34.32;94976.41;4990576;28;20641;-71
2022/03/05 07:47:13;;;;;;;83.38;49.17;;;;;;;9.82;33.96;94979.69;4991059;28;20559;-66
2022/03/05 07:49:40;;;;;;;96.10;47.03;;;;;;;9.87;33.32;94974.50;4991015;28;20362;-67
2022/03/05 07:52:07;;;;;;;84.47;47.80;;;;;;;8.80;34.55;94961.31;4990443;28;20647;-66
2022/03/05 07:54:34;;;;;;;81.72;46.53;;;;;;;9.49;33.94;94975.44;4991094;28;20207;-67
2022/03/05 07:57:01;;;;;;;84.43;45.00;;;;;;;9.60;33.44;94966.66;4991227;28;20265;-69
2022/03/05 07:59:28;;;;;;;70.57;43.47;;;;;;;9.62;34.21;94971.63;4990828;28;20240;-68
2022/03/05 08:01:55;;;;;;;73.35;42.17;;;;;;;9.61;34.30;94970.06;4990845;28;20186;-70
2022/03/05 08:04:22;;;;;;;71.53;40.75;;;;;;;9.63;34.37;94970.63;4990268;28;20573;-66
2022/03/05 08:06:49;;;;;;;78.47;37.60;;;;;;;9.61;33.78;94970.88;4990794;28;20237;-67
2022/03/05 08:09:16;;;;;;;78.47;40.92;;;;;;;9.70;34.35;94976.44;4990627;28;20277;-66
2022/03/05 08:11:43;;;;;;;75.35;40.22;;;;;;;9.59;33.17;94975.56;4991121;28;20190;-68
2022/03/05 08:14:10;;;;;;;67.78;39.40;;;;;;;9.79;33.01;94954.03;4989935;28;20191;-69
2022/03/05 08:16:37;;;;;;;62.42;39.00;;;;;;;9.66;33.14;94951.81;4991631;28;20195;-68
2022/03/05 08:19:04;;;;;;;61.75;37.78;;;;;;;9.68;33.67;94973.28;4991206;28;20198;-69
2022/03/05 08:21:32;;;;;;;64.47;38.60;;;;;;;9.75;32.35;94952.94;4991621;28;20226;-69
2022/03/05 08:24:01;;;;;;;62.97;38.75;;;;;;;9.11;33.96;94980.78;4991340;28;20194;-67
2022/03/05 08:26:27;;;;;;;61.92;37.03;;;;;;;9.79;34.16;94974.94;4991566;28;20202;-68
2022/03/05 08:28:55;;;;;;;70.90;40.40;;;;;;;9.54;33.80;94982.56;4990717;28;20193;-65
2022/03/05 08:31:21;;;;;;;64.47;39.00;;;;;;;9.76;33.38;94978.06;4990832;28;20202;-68
2022/03/05 08:33:48;;;;;;;67.50;38.85;;;;;;;9.96;32.77;94970.41;4990724;28;20754;-67
2022/03/05 08:36:15;;;;;;;64.85;38.90;;;;;;;9.99;33.71;94967.28;4990592;28;20276;-71
2022/03/05 08:38:42;;;;;;;60.55;38.35;;;;;;;9.76;33.62;94976.22;4990273;28;20203;-68
2022/03/05 08:41:09;;;;;;;62.70;36.08;;;;;;;9.99;33.04;94969.91;4990751;28;20233;-67
2022/03/05 08:43:36;;;;;;;61.42;36.55;;;;;;;10.40;33.36;94979.66;4990377;28;20191;-70
2022/03/05 08:46:05;;;;;;;62.75;37.63;;;;;;;10.61;32.55;94972.72;4992388;28;20210;-67
2022/03/05 08:48:32;;;;;;;64.93;35.92;;;;;;;10.34;32.55;94962.34;4997729;28;20685;-68
2022/03/05 08:50:59;;;;;;;55.72;35.88;;;;;;;10.32;32.71;94974.91;4997278;28;20206;-70
2022/03/05 08:53:26;;;;;;;76.90;38.33;;;;;;;10.34;33.02;94972.03;4992032;28;20206;-69
2022/03/05 08:55:54;;;;;;;68.70;37.88;;;;;;;10.53;32.89;94979.22;4989918;28;20187;-66
2022/03/05 08:58:22;;;;;;;63.65;36.65;;;;;;;10.73;33.49;94976.72;4990654;28;20209;-69
2022/03/05 09:00:49;;;;;;;69.53;35.70;;;;;;;10.71;33.18;94978.81;4990241;28;20207;-66
2022/03/05 09:03:17;;;;;;;62.22;34.35;;;;;;;10.64;35.78;94978.25;4989740;28;20678;-68
2022/03/05 09:05:46;;;;;;;54.30;32.42;;;;;;;10.85;34.60;94979.16;4989448;28;20199;-70
2022/03/05 09:08:14;;;;;;;66.80;44.95;;;;;;;10.07;35.80;94982.53;4990132;28;20206;-67
2022/03/05 09:10:41;;;;;;;62.88;39.13;;;;;;;10.17;36.57;94977.41;4989379;28;20236;-67
2022/03/05 09:13:09;;;;;;;53.70;33.70;;;;;;;10.77;35.68;94972.56;4990482;28;20573;-70
2022/03/05 09:15:35;;;;;;;41.03;27.60;;;;;;;10.80;35.13;94982.53;4988996;28;20234;-67
2022/03/05 09:18:03;;;;;;;52.05;31.95;;;;;;;10.85;38.54;94968.66;4989309;28;20229;-69
2022/03/05 09:20:30;;;;;;;35.30;23.98;;;;;;;11.12;36.67;94964.06;4989099;28;20226;-67
2022/03/05 09:22:58;;;;;;;35.88;23.25;;;;;;;10.73;36.58;94971.47;4962176;28;20266;-68
2022/03/05 09:25:25;;;;;;;35.80;24.90;;;;;;;11.53;35.67;94965.75;4950285;28;20211;-66
2022/03/05 09:27:52;;;;;;;37.22;26.23;;;;;;;11.46;35.14;94959.97;4955132;28;20674;-69
2022/03/05 09:30:20;;;;;;;37.47;24.45;;;;;;;11.32;35.02;94955.47;4949866;28;20196;-68
2022/03/05 09:32:53;;;;;;;37.17;25.95;;;;;;;11.31;35.10;94952.09;4949275;28;20204;-69
2022/03/05 09:35:20;;;;;;;47.53;27.13;;;;;;;11.39;35.80;94964.69;4949042;28;20188;-69
2022/03/05 09:37:47;;;;;;;38.35;24.98;;;;;;;11.61;36.04;94967.09;4949598;28;20208;-68
2022/03/05 09:40:14;;;;;;;36.92;25.27;;;;;;;11.85;34.52;94962.97;4949193;28;20315;-66
2022/03/05 09:42:43;;;;;;;39.13;24.15;;;;;;;11.77;34.02;94960.88;4949721;28;20192;-65
2022/03/05 09:45:16;;;;;;;39.15;23.45;;;;;;;11.73;33.89;94959.81;4953761;28;20247;-67
2022/03/05 09:47:44;;;;;;;32.65;21.65;;;;;;;11.80;33.40;94928.84;4951216;28;20204;-67
2022/03/05 09:50:12;;;;;;;94.88;56.40;;;;;;;11.86;35.15;94948.81;4948893;28;20207;-70
2022/03/05 09:52:39;;;;;;;47.50;31.25;;;;;;;11.79;35.31;94943.78;4948984;28;20670;-66
2022/03/05 09:55:07;;;;;;;32.70;22.77;;;;;;;12.41;33.65;94945.38;4947915;28;20266;-67
2022/03/05 09:57:34;;;;;;;30.23;20.37;;;;;;;12.08;34.00;94941.44;4948796;28;20514;-66
2022/03/05 10:00:04;;;;;;;31.15;21.65;;;;;;;12.00;33.73;94941.97;4950356;28;20764;-67
2022/03/05 10:02:30;;;;;;;33.88;21.08;;;;;;;12.36;33.75;94943.53;4954254;28;20246;-65
2022/03/05 10:05:20;;;;;;;35.20;22.95;;;;;;;12.33;33.64;94945.91;4950522;28;20202;-63
2022/03/05 10:08:12;;;;;;;29.80;22.10;;;;;;;12.26;33.78;94951.44;4949002;28;20233;-64
2022/03/05 10:10:55;;;;;;;31.58;22.30;;;;;;;12.01;34.31;94943.53;4948783;28;20260;-68
2022/03/05 10:13:32;;;;;;;33.10;20.02;;;;;;;11.96;34.93;94948.81;4949477;28;20207;-69
2022/03/05 10:16:01;;;;;;;33.67;22.37;;;;;;;11.78;35.19;94949.31;4947806;28;20690;-65
2022/03/05 10:18:29;;;;;;;32.97;22.07;;;;;;;11.86;34.97;94954.06;4948839;28;21272;-65
2022/03/05 10:20:59;;;;;;;29.87;22.60;;;;;;;11.38;35.32;94951.81;4950124;29;20897;-63
2022/03/05 10:23:30;;;;;;;38.92;25.42;;;;;;;11.45;35.23;94934.00;4950540;29;20430;-63
2022/03/05 10:25:57;;;;;;;42.95;31.63;;;;;;;11.43;35.63;94950.00;4950189;29;20231;-63
2022/03/05 10:28:27;;;;;;;50.15;35.65;;;;;;;11.11;35.65;94950.16;4950386;29;20235;-65
2022/03/05 10:31:03;;;;;;;46.83;31.43;;;;;;;11.60;35.96;94944.53;4949668;29;20226;-65
2022/03/05 10:33:45;;;;;;;44.37;23.93;;;;;;;11.74;36.69;94940.38;4950895;29;20473;-65
2022/03/05 10:36:20;;;;;;;33.70;23.73;;;;;;;11.98;36.18;94936.19;4951153;28;20439;-64
2022/03/05 10:39:23;;;;;;;38.97;23.85;;;;;;;11.46;36.36;94946.09;4954010;29;20294;-64
2022/03/05 10:41:52;;;;;;;38.47;23.77;;;;;;;11.31;35.59;94935.53;4953522;29;20245;-65
2022/03/05 10:44:19;;;;;;;37.63;25.83;;;;;;;11.58;35.62;94942.19;4953199;29;20204;-64
2022/03/05 10:46:49;;;;;;;38.97;25.10;;;;;;;11.99;35.57;94935.13;4971474;28;20203;-66
2022/03/05 10:49:19;;;;;;;36.57;25.00;;;;;;;12.15;35.53;94926.22;4972611;28;20203;-64
2022/03/05 10:51:48;;;;;;;40.72;25.25;;;;;;;11.71;35.97;94927.78;4952110;28;20451;-64
2022/03/05 10:54:38;;;;;;;35.22;24.60;;;;;;;11.68;35.54;94925.66;4951173;28;20222;-64
2022/03/05 10:57:22;;;;;;;35.53;24.63;;;;;;;11.73;35.87;94923.06;4952600;28;20212;-65
2022/03/05 10:59:52;;;;;;;34.20;23.90;;;;;;;11.78;36.32;94917.81;4952862;29;20490;-67
2022/03/05 11:02:21;;;;;;;32.17;23.17;;;;;;;11.94;36.01;94916.75;4953851;29;20239;-64
2022/03/05 11:04:50;;;;;;;35.80;23.58;;;;;;;11.84;36.48;94909.66;4953246;29;20544;-65
2022/03/05 11:07:19;;;;;;;39.27;23.27;;;;;;;12.00;35.59;94905.22;4953416;29;20270;-64
2022/03/05 11:09:49;;;;;;;35.97;23.90;;;;;;;11.87;36.15;94903.91;4953269;29;20538;-64
2022/03/05 11:12:19;;;;;;;35.78;23.65;;;;;;;11.87;36.24;94900.47;4953152;29;20443;-63
2022/03/05 11:14:47;;;;;;;37.57;24.87;;;;;;;11.83;36.30;94904.69;4952472;29;20242;-71
2022/03/05 11:17:15;;;;;;;41.30;24.25;;;;;;;11.60;37.51;94902.53;4953162;29;20946;-64
2022/03/05 11:19:43;;;;;;;38.13;23.80;;;;;;;11.79;36.68;94880.00;4952918;29;20213;-65
2022/03/05 11:22:13;;;;;;;35.60;23.05;;;;;;;11.79;36.71;94880.00;4951602;29;20487;-64
2022/03/05 11:24:42;;;;;;;150.23;105.43;;;;;;;12.01;37.49;94888.41;4953152;29;20210;-69
2022/03/05 11:27:14;;;;;;;213.07;140.57;;;;;;;12.06;37.19;94883.16;4952968;29;20439;-68
2022/03/05 11:29:55;;;;;;;51.53;33.27;;;;;;;12.33;36.69;94880.22;4952840;29;20203;-68
2022/03/05 11:32:28;;;;;;;32.97;24.67;;;;;;;12.62;37.04;94884.63;4963669;28;20541;-74